Time;durP1;ratioP1;P1;durP2;ratioP2;P2;SDS_P1;SDS_P2;PMS_P1;PMS_P2;Temp;Humidity;BMP_temperature;BMP_pressure;BME280_temperature;BME280_humidity;BME280_pressure;Samples;Min_cycle;Max_cycle;Signal;HPM_P1;HPM_P2
2023/09/09 00:01:13;;;;;;;25.08;17.88;;;14.50;99.90;;;;;;8177451;29;20038;-76
2023/09/09 00:05:13;;;;;;;23.13;18.77;;;14.40;99.90;;;;;;8181793;29;20086;-77
2023/09/09 00:09:15;;;;;;;25.35;19.45;;;14.40;99.90;;;;;;8172199;29;20056;-77
2023/09/09 00:13:16;;;;;;;29.30;21.50;;;14.40;99.90;;;;;;8184576;29;20110;-77
2023/09/09 00:17:16;;;;;;;21.38;17.83;;;14.50;99.90;;;;;;8175429;29;20039;-77
2023/09/09 00:21:17;;;;;;;23.50;18.20;;;14.40;99.90;;;;;;8174127;29;20023;-77
2023/09/09 00:25:17;;;;;;;26.50;19.77;;;14.30;99.90;;;;;;8156808;29;20120;-77
2023/09/09 00:29:18;;;;;;;26.52;20.10;;;14.20;99.90;;;;;;8162728;29;20023;-77
2023/09/09 00:33:18;;;;;;;28.40;20.80;;;14.20;99.90;;;;;;8169409;29;20031;-77
2023/09/09 00:37:19;;;;;;;25.40;20.63;;;14.20;99.90;;;;;;8188347;29;20155;-77
2023/09/09 00:41:20;;;;;;;22.38;17.15;;;14.20;99.90;;;;;;8172536;28;20035;-77
2023/09/09 00:45:21;;;;;;;24.20;18.65;;;14.10;99.90;;;;;;8164241;29;20023;-77
2023/09/09 00:49:21;;;;;;;25.65;19.08;;;14.00;99.90;;;;;;8179011;29;20030;-77
2023/09/09 00:53:23;;;;;;;26.52;20.10;;;13.90;99.90;;;;;;8167593;29;20038;-77
2023/09/09 00:57:23;;;;;;;32.03;23.50;;;14.00;99.90;;;;;;8170065;29;20035;-77
2023/09/09 01:01:24;;;;;;;36.35;22.63;;;14.00;99.90;;;;;;8168174;29;20120;-76
2023/09/09 01:05:26;;;;;;;33.28;21.55;;;13.90;99.90;;;;;;8161552;29;20538;-77
2023/09/09 01:09:26;;;;;;;28.92;20.40;;;13.90;99.90;;;;;;8190825;29;20492;-76
2023/09/09 01:13:29;;;;;;;22.70;17.70;;;13.90;99.90;;;;;;8187512;29;20035;-77
2023/09/09 01:17:30;;;;;;;24.67;18.63;;;13.80;99.90;;;;;;8155007;29;20024;-77
2023/09/09 01:21:33;;;;;;;22.85;18.67;;;13.80;99.90;;;;;;8169740;29;20016;-78
2023/09/09 01:25:33;;;;;;;26.73;19.70;;;13.70;99.90;;;;;;8179395;29;20448;-77
2023/09/09 01:29:34;;;;;;;31.40;20.90;;;13.80;99.90;;;;;;8197511;29;20023;-76
2023/09/09 01:33:35;;;;;;;26.10;18.45;;;13.80;99.90;;;;;;8181810;29;20023;-77
2023/09/09 01:37:35;;;;;;;25.27;17.35;;;13.70;99.90;;;;;;8182623;29;20050;-77
2023/09/09 01:41:36;;;;;;;21.27;17.50;;;13.60;99.90;;;;;;8176242;29;20484;-77
2023/09/09 01:45:37;;;;;;;27.58;16.63;;;13.50;99.90;;;;;;8188831;29;20031;-77
2023/09/09 01:49:37;;;;;;;21.38;16.20;;;13.40;99.90;;;;;;8168486;29;20027;-77
2023/09/09 01:53:38;;;;;;;22.25;17.05;;;13.30;99.90;;;;;;8183578;29;20039;-77
2023/09/09 01:57:39;;;;;;;21.20;16.27;;;13.30;99.90;;;;;;8162608;29;20035;-77
2023/09/09 02:01:40;;;;;;;22.48;17.98;;;13.30;99.90;;;;;;8163288;29;20030;-77
2023/09/09 02:05:40;;;;;;;29.25;20.17;;;13.40;99.90;;;;;;8165666;29;20035;-77
2023/09/09 02:09:45;;;;;;;29.30;20.10;;;13.40;99.90;;;;;;8188842;29;20031;-77
2023/09/09 02:13:46;;;;;;;36.97;20.25;;;13.50;99.90;;;;;;8178055;29;20488;-76
2023/09/09 02:17:47;;;;;;;29.80;19.20;;;13.40;99.90;;;;;;8172221;29;20083;-78
2023/09/09 02:21:47;;;;;;;25.42;17.80;;;13.30;99.90;;;;;;8163908;29;20420;-76
2023/09/09 02:25:48;;;;;;;33.75;21.35;;;13.30;99.90;;;;;;8168095;29;20029;-77
2023/09/09 02:29:49;;;;;;;34.67;22.20;;;13.30;99.90;;;;;;8167940;29;20035;-78
2023/09/09 02:33:49;;;;;;;26.88;18.33;;;13.40;99.90;;;;;;8156608;29;20054;-77
2023/09/09 02:37:50;;;;;;;26.13;18.38;;;13.40;99.90;;;;;;8176822;29;20031;-78
2023/09/09 02:41:50;;;;;;;26.75;17.52;;;13.50;99.90;;;;;;8158094;29;20628;-76
2023/09/09 02:45:51;;;;;;;77.10;24.67;;;13.40;99.90;;;;;;8173085;29;20051;-77
2023/09/09 02:49:51;;;;;;;55.42;18.80;;;13.30;99.90;;;;;;8158920;29;20530;-77
2023/09/09 02:53:52;;;;;;;29.77;18.13;;;13.30;99.90;;;;;;8161077;29;20069;-77
2023/09/09 02:57:52;;;;;;;31.27;19.67;;;13.20;99.90;;;;;;8163703;29;20079;-77
2023/09/09 03:01:53;;;;;;;43.10;21.27;;;13.10;99.90;;;;;;8165533;29;20027;-77
2023/09/09 03:05:53;;;;;;;32.33;18.80;;;13.10;99.90;;;;;;8186822;29;20098;-76
2023/09/09 03:09:54;;;;;;;33.45;19.85;;;13.10;99.90;;;;;;8183563;28;20063;-77
2023/09/09 03:13:54;;;;;;;44.88;24.50;;;13.00;99.90;;;;;;8182103;29;20700;-77
2023/09/09 03:17:55;;;;;;;47.20;27.08;;;13.10;99.90;;;;;;8165621;29;20024;-77
2023/09/09 03:21:57;;;;;;;83.25;26.00;;;13.20;99.90;;;;;;8166398;29;20448;-76
2023/09/09 03:25:57;;;;;;;69.80;26.60;;;13.20;99.90;;;;;;8165910;29;20035;-77
2023/09/09 03:29:58;;;;;;;66.90;24.58;;;13.30;99.90;;;;;;8174687;29;20030;-76
2023/09/09 03:33:58;;;;;;;74.05;24.02;;;13.30;99.90;;;;;;8165570;29;20028;-76
2023/09/09 03:37:59;;;;;;;85.88;28.10;;;13.40;99.90;;;;;;8157513;29;20019;-77
2023/09/09 03:41:59;;;;;;;161.93;28.75;;;13.40;99.90;;;;;;8171023;29;20126;-76
2023/09/09 03:46:00;;;;;;;51.30;26.45;;;13.40;99.90;;;;;;8157444;29;20030;-76
2023/09/09 03:50:01;;;;;;;89.68;27.33;;;13.30;99.90;;;;;;8153364;29;20036;-76
2023/09/09 03:54:01;;;;;;;52.28;27.30;;;13.30;99.90;;;;;;8182340;29;20028;-76
2023/09/09 03:58:02;;;;;;;61.72;27.20;;;13.30;99.90;;;;;;8164299;29;20035;-76
2023/09/09 04:02:03;;;;;;;46.92;26.15;;;13.30;99.90;;;;;;8173824;29;20031;-77
2023/09/09 04:06:06;;;;;;;49.63;27.00;;;13.30;99.90;;;;;;8160214;29;20167;-76
2023/09/09 04:10:09;;;;;;;51.83;26.23;;;13.20;99.90;;;;;;8168479;29;20039;-77
2023/09/09 04:14:10;;;;;;;58.45;27.92;;;13.20;99.90;;;;;;8165050;29;20059;-76
2023/09/09 04:18:12;;;;;;;66.72;26.58;;;13.30;99.90;;;;;;8156570;29;20115;-76
2023/09/09 04:22:12;;;;;;;100.75;27.35;;;13.30;99.90;;;;;;8154011;29;20519;-77
2023/09/09 04:26:13;;;;;;;72.00;26.65;;;13.30;99.90;;;;;;8175966;29;20035;-77
2023/09/09 04:30:14;;;;;;;56.47;26.85;;;13.30;99.90;;;;;;8156328;29;20035;-76
2023/09/09 04:34:14;;;;;;;113.53;25.70;;;13.30;99.90;;;;;;8166398;29;20028;-76
2023/09/09 04:38:15;;;;;;;76.28;26.40;;;13.30;99.90;;;;;;8163774;29;20032;-76
2023/09/09 04:42:16;;;;;;;72.55;27.10;;;13.40;99.90;;;;;;8162359;29;20032;-76
2023/09/09 04:46:17;;;;;;;158.95;28.70;;;13.40;99.90;;;;;;8156263;29;20031;-77
2023/09/09 04:50:19;;;;;;;69.80;24.85;;;13.50;99.90;;;;;;8156517;29;20027;-76
2023/09/09 04:54:19;;;;;;;121.90;25.35;;;13.70;99.90;;;;;;8169332;29;20035;-76
2023/09/09 04:58:20;;;;;;;76.00;25.63;;;13.70;99.90;;;;;;8175861;29;20045;-77
2023/09/09 05:02:21;;;;;;;156.68;24.90;;;13.70;99.90;;;;;;8155312;29;20476;-78
2023/09/09 05:06:22;;;;;;;50.38;20.80;;;13.70;99.90;;;;;;8169975;29;20543;-77
2023/09/09 05:10:24;;;;;;;59.42;21.88;;;14.00;99.90;;;;;;8159208;29;20035;-77
2023/09/09 05:14:24;;;;;;;176.20;23.98;;;13.90;99.90;;;;;;8168365;29;20028;-77
2023/09/09 05:18:25;;;;;;;36.10;20.13;;;13.80;99.90;;;;;;8146203;29;20038;-77
2023/09/09 05:22:25;;;;;;;107.22;22.65;;;14.00;99.90;;;;;;8150814;29;20028;-78
2023/09/09 05:26:26;;;;;;;84.13;22.85;;;14.00;99.90;;;;;;8168506;29;20023;-78
2023/09/09 05:30:27;;;;;;;50.33;21.30;;;14.00;99.90;;;;;;8162153;29;20036;-78
2023/09/09 05:34:27;;;;;;;60.30;21.30;;;14.20;99.90;;;;;;8149980;29;20594;-79
2023/09/09 05:38:29;;;;;;;88.47;21.80;;;14.20;99.90;;;;;;8167779;29;20083;-78
2023/09/09 05:42:30;;;;;;;37.40;19.65;;;14.50;99.90;;;;;;8164884;29;20024;-78
2023/09/09 05:46:30;;;;;;;48.72;20.83;;;14.50;99.90;;;;;;8157049;29;20040;-78
2023/09/09 05:50:31;;;;;;;46.65;22.20;;;14.80;99.90;;;;;;8154765;29;20042;-78
2023/09/09 05:54:31;;;;;;;41.67;22.55;;;14.60;99.90;;;;;;8146950;29;20555;-78
2023/09/09 05:58:33;;;;;;;46.80;24.02;;;14.50;99.90;;;;;;8166024;29;20027;-78
2023/09/09 06:02:34;;;;;;;30.60;21.50;;;14.70;99.90;;;;;;8141789;29;20031;-79
2023/09/09 06:06:34;;;;;;;59.20;23.58;;;14.90;99.90;;;;;;8151064;29;20556;-78
2023/09/09 06:10:35;;;;;;;43.33;22.70;;;14.90;99.90;;;;;;8161147;29;20067;-79
2023/09/09 06:14:36;;;;;;;67.63;23.90;;;15.10;99.90;;;;;;8167723;29;20039;-78
2023/09/09 06:18:36;;;;;;;45.83;22.02;;;15.30;99.90;;;;;;8161057;29;20039;-79
2023/09/09 06:22:37;;;;;;;27.67;21.98;;;15.60;99.90;;;;;;8170799;29;20034;-79
2023/09/09 06:26:37;;;;;;;33.63;24.70;;;15.60;99.90;;;;;;8149432;29;20034;-79
2023/09/09 06:30:43;;;;;;;28.15;23.02;;;15.70;99.90;;;;;;8158974;29;20055;-78
2023/09/09 06:34:43;;;;;;;27.30;23.73;;;15.80;99.90;;;;;;8146353;29;20112;-78
2023/09/09 06:38:44;;;;;;;27.35;23.63;;;16.00;99.90;;;;;;8161547;29;20368;-79
2023/09/09 06:42:44;;;;;;;25.88;22.35;;;16.30;99.90;;;;;;8151809;29;20079;-79
2023/09/09 06:46:45;;;;;;;28.02;23.50;;;16.50;99.90;;;;;;8165266;29;21590;-79
2023/09/09 06:50:48;;;;;;;27.23;23.40;;;16.60;99.90;;;;;;8160305;29;20032;-78
2023/09/09 06:54:48;;;;;;;27.42;22.13;;;16.70;99.90;;;;;;8162679;29;20436;-79
2023/09/09 06:58:49;;;;;;;26.92;23.50;;;16.70;99.90;;;;;;8165892;29;20074;-79
2023/09/09 07:02:49;;;;;;;26.58;22.92;;;16.70;99.90;;;;;;8156706;29;20023;-79
2023/09/09 07:06:50;;;;;;;27.65;24.27;;;16.90;99.90;;;;;;8171783;29;20039;-79
2023/09/09 07:10:51;;;;;;;25.75;22.95;;;17.30;99.90;;;;;;8158985;29;20052;-79
2023/09/09 07:14:52;;;;;;;28.38;24.35;;;17.50;99.90;;;;;;8155388;29;20080;-78
2023/09/09 07:18:52;;;;;;;29.63;25.15;;;17.70;99.90;;;;;;8160714;29;20031;-78
2023/09/09 07:22:53;;;;;;;33.63;26.35;;;18.00;99.90;;;;;;8170899;29;20111;-78
2023/09/09 07:26:54;;;;;;;35.97;29.30;;;18.30;99.90;;;;;;8159597;29;20031;-79
2023/09/09 07:30:54;;;;;;;33.58;28.40;;;18.20;99.90;;;;;;8162237;29;20031;-78
2023/09/09 07:34:55;;;;;;;36.30;31.15;;;18.80;99.90;;;;;;8162399;29;20094;-78
2023/09/09 07:38:55;;;;;;;40.40;29.48;;;19.20;99.90;;;;;;8157895;29;20027;-78
2023/09/09 07:42:56;;;;;;;33.30;28.48;;;19.50;99.90;;;;;;8159350;29;20038;-79
2023/09/09 07:46:57;;;;;;;32.67;28.13;;;19.70;99.90;;;;;;8156181;29;20027;-78
2023/09/09 07:50:59;;;;;;;35.83;29.77;;;20.10;99.90;;;;;;8170482;29;20028;-78
2023/09/09 07:54:59;;;;;;;37.15;31.05;;;20.60;99.90;;;;;;8167814;29;20027;-79
2023/09/09 07:59:00;;;;;;;41.60;34.63;;;20.80;99.90;;;;;;8156310;29;20110;-79
2023/09/09 08:03:00;;;;;;;46.03;33.80;;;21.10;99.90;;;;;;8160409;29;20038;-79
2023/09/09 08:07:01;;;;;;;40.13;32.65;;;21.50;99.90;;;;;;8159239;29;20439;-78
2023/09/09 08:11:05;;;;;;;35.83;31.00;;;21.70;99.90;;;;;;8160324;29;20037;-79
2023/09/09 08:15:08;;;;;;;26.85;23.40;;;21.90;99.90;;;;;;8160823;29;20054;-79
2023/09/09 08:19:09;;;;;;;25.98;22.17;;;22.60;99.90;;;;;;8156733;29;20667;-79
2023/09/09 08:23:09;;;;;;;24.95;20.73;;;23.10;99.90;;;;;;8149805;29;20075;-79
2023/09/09 08:27:10;;;;;;;23.23;20.75;;;23.60;99.90;;;;;;8176962;29;20067;-79
2023/09/09 08:31:10;;;;;;;24.52;21.40;;;23.70;99.90;;;;;;8158337;29;20504;-79
2023/09/09 08:35:11;;;;;;;25.92;21.08;;;24.60;99.90;;;;;;8177476;29;20023;-79
2023/09/09 08:39:11;;;;;;;24.48;19.40;;;25.10;99.90;;;;;;8153496;29;20082;-79
2023/09/09 08:43:23;;;;;;;21.17;18.85;;;25.30;99.90;;;;;;8153300;29;20036;-80
2023/09/09 08:47:24;;;;;;;21.67;18.77;;;25.80;99.90;;;;;;8177225;29;20047;-80
2023/09/09 08:51:31;;;;;;;21.10;18.13;;;26.20;99.90;;;;;;8153787;29;20038;-80
2023/09/09 08:55:32;;;;;;;22.85;17.63;;;26.50;99.90;;;;;;8167434;29;20031;-79
2023/09/09 08:59:33;;;;;;;22.27;18.25;;;26.60;99.90;;;;;;8170552;29;20028;-80
2023/09/09 09:03:34;;;;;;;19.38;17.00;;;26.70;99.90;;;;;;8174571;29;20452;-80
2023/09/09 09:07:35;;;;;;;18.90;16.50;;;26.80;99.90;;;;;;8163665;29;20024;-80
2023/09/09 09:11:36;;;;;;;19.42;17.33;;;27.00;99.90;;;;;;8178136;29;20068;-80
2023/09/09 09:15:38;;;;;;;18.67;16.02;;;27.50;99.90;;;;;;8164661;29;20376;-80
2023/09/09 09:19:38;;;;;;;18.08;16.20;;;27.50;99.90;;;;;;8170938;29;20028;-80
2023/09/09 09:23:44;;;;;;;18.17;15.88;;;27.30;99.90;;;;;;8162977;29;20180;-80
2023/09/09 09:27:44;;;;;;;19.23;16.65;;;27.60;99.90;;;;;;8161707;29;20032;-80
2023/09/09 09:31:53;;;;;;;18.75;15.85;;;27.50;99.90;;;;;;8182638;29;20300;-80
2023/09/09 09:35:53;;;;;;;17.35;15.50;;;27.70;99.90;;;;;;8158201;29;20399;-79
2023/09/09 09:39:54;;;;;;;18.00;15.48;;;27.70;99.90;;;;;;8155786;29;20024;-79
2023/09/09 09:43:54;;;;;;;20.35;15.57;;;27.90;99.90;;;;;;8177089;28;20027;-80
2023/09/09 09:47:57;;;;;;;16.10;14.40;;;28.40;99.90;;;;;;8169565;29;20031;-80
2023/09/09 09:51:57;;;;;;;16.17;13.95;;;28.70;99.90;;;;;;8182948;29;20086;-81
2023/09/09 09:55:58;;;;;;;17.55;15.15;;;28.80;99.90;;;;;;8163586;29;20044;-81
2023/09/09 10:00:00;;;;;;;17.33;14.38;;;29.00;99.90;;;;;;8178037;29;20023;-80
2023/09/09 10:04:06;;;;;;;15.23;13.63;;;29.30;99.90;;;;;;8171880;29;20118;-80
2023/09/09 10:08:28;;;;;;;16.45;13.30;;;29.60;99.90;;;;;;8171819;29;20031;-79
2023/09/09 10:12:47;;;;;;;15.32;12.25;;;29.90;99.90;;;;;;8165639;29;20118;-80
2023/09/09 10:16:52;;;;;;;14.00;10.85;;;29.90;99.90;;;;;;8161987;29;20058;-80
2023/09/09 10:20:53;;;;;;;13.25;11.70;;;30.30;99.90;;;;;;8156223;29;20115;-80
2023/09/09 10:24:55;;;;;;;12.45;10.93;;;30.60;99.90;;;;;;8166573;29;20118;-80
2023/09/09 10:28:58;;;;;;;12.10;9.98;;;31.60;99.90;;;;;;8162888;29;20027;-80
2023/09/09 10:33:00;;;;;;;15.30;10.57;;;32.00;99.90;;;;;;8158048;29;20463;-80
2023/09/09 10:37:02;;;;;;;13.35;9.95;;;32.10;99.90;;;;;;8166824;29;20043;-80
2023/09/09 10:41:04;;;;;;;12.02;9.68;;;32.30;99.90;;;;;;8153862;29;20130;-80
2023/09/09 10:45:24;;;;;;;13.00;11.07;;;32.40;99.90;;;;;;8181810;29;20042;-80
2023/09/09 10:49:32;;;;;;;10.98;9.88;;;32.50;99.90;;;;;;8171230;29;20035;-80
2023/09/09 10:53:33;;;;;;;12.32;9.80;;;32.60;99.90;;;;;;8150660;29;20028;-81
2023/09/09 10:57:34;;;;;;;11.10;9.70;;;33.10;99.90;;;;;;8171716;29;20031;-80
2023/09/09 11:01:34;;;;;;;11.45;9.23;;;33.10;99.90;;;;;;8159392;29;20518;-80
2023/09/09 11:06:00;;;;;;;11.02;8.98;;;33.20;99.90;;;;;;8172879;29;20031;-80
2023/09/09 11:10:03;;;;;;;10.60;8.80;;;34.30;99.90;;;;;;8168762;29;20027;-81
2023/09/09 11:14:05;;;;;;;10.52;8.20;;;34.80;99.90;;;;;;8157561;29;20035;-81
2023/09/09 11:18:06;;;;;;;11.70;8.90;;;34.80;99.90;;;;;;8170043;29;20082;-81
2023/09/09 11:22:08;;;;;;;7.50;6.80;;;35.50;98.00;;;;;;8160859;29;20054;-80
2023/09/09 11:26:10;;;;;;;11.02;6.82;;;34.80;99.90;;;;;;8174121;29;20035;-81
2023/09/09 11:30:12;;;;;;;8.88;7.00;;;35.10;96.40;;;;;;8164714;28;20510;-80
2023/09/09 11:34:13;;;;;;;7.93;7.22;;;34.70;98.00;;;;;;8169619;29;20031;-80
2023/09/09 11:38:14;;;;;;;7.28;6.25;;;34.90;96.50;;;;;;8181582;29;20035;-81
2023/09/09 11:42:14;;;;;;;7.85;7.05;;;36.10;93.50;;;;;;8172449;29;20087;-80
2023/09/09 11:46:15;;;;;;;7.72;6.93;;;34.40;93.80;;;;;;8158712;29;20531;-80
2023/09/09 11:50:16;;;;;;;9.57;7.05;;;34.00;95.40;;;;;;8152106;29;20031;-80
2023/09/09 11:54:20;;;;;;;9.70;7.20;;;34.80;93.40;;;;;;8148972;29;20070;-81
2023/09/09 11:58:21;;;;;;;8.68;6.72;;;36.30;92.90;;;;;;8168140;29;20031;-81
2023/09/09 12:02:23;;;;;;;9.40;6.82;;;36.80;85.20;;;;;;8177377;29;20054;-81
2023/09/09 12:06:24;;;;;;;8.52;7.22;;;37.20;91.70;;;;;;8178973;29;20031;-81
2023/09/09 12:10:28;;;;;;;14.02;7.45;;;38.40;80.70;;;;;;8179555;29;20443;-81
2023/09/09 12:14:29;;;;;;;7.57;6.40;;;38.20;82.50;;;;;;8147182;29;20032;-81
2023/09/09 12:18:30;;;;;;;9.35;6.68;;;36.40;90.00;;;;;;8155342;29;20517;-81
2023/09/09 12:22:32;;;;;;;7.65;6.00;;;35.30;90.30;;;;;;8150671;29;20019;-81
2023/09/09 12:26:33;;;;;;;7.72;6.38;;;37.00;85.00;;;;;;8162935;29;20035;-81
2023/09/09 12:30:36;;;;;;;6.70;6.10;;;37.10;86.00;;;;;;8167880;29;20473;-81
2023/09/09 12:34:37;;;;;;;9.07;6.68;;;38.50;79.30;;;;;;8149818;29;20684;-81
2023/09/09 12:38:40;;;;;;;7.35;6.28;;;38.30;77.00;;;;;;8173822;29;20023;-81
2023/09/09 12:42:41;;;;;;;7.15;6.43;;;35.90;79.40;;;;;;8182578;28;20562;-81
2023/09/09 12:46:50;;;;;;;6.20;5.60;;;37.50;75.00;;;;;;8153918;29;20026;-81
2023/09/09 12:50:51;;;;;;;7.07;6.40;;;38.50;75.50;;;;;;8183509;29;20038;-82
2023/09/09 12:54:51;;;;;;;6.38;5.75;;;36.30;81.70;;;;;;8178392;29;20036;-81
2023/09/09 12:58:52;;;;;;;8.63;5.95;;;35.90;79.70;;;;;;8167968;29;20058;-80
2023/09/09 13:02:52;;;;;;;7.00;6.30;;;36.50;77.30;;;;;;8175659;29;20035;-81
2023/09/09 13:06:53;;;;;;;6.50;5.90;;;38.30;76.70;;;;;;8171506;29;20035;-81
2023/09/09 13:10:54;;;;;;;7.28;5.78;;;38.70;75.70;;;;;;8170582;29;20041;-81
2023/09/09 13:14:56;;;;;;;8.35;5.70;;;38.70;74.10;;;;;;8188056;29;20031;-81
2023/09/09 13:18:56;;;;;;;8.63;6.40;;;39.10;69.10;;;;;;8161090;29;20028;-81
2023/09/09 13:22:57;;;;;;;9.98;6.18;;;40.10;71.70;;;;;;8170260;29;20178;-81
2023/09/09 13:26:58;;;;;;;6.80;5.78;;;40.90;64.30;;;;;;8164926;29;20381;-82
2023/09/09 13:30:58;;;;;;;6.05;5.50;;;40.80;64.30;;;;;;8181322;29;20062;-82
2023/09/09 13:34:59;;;;;;;8.60;5.60;;;41.30;59.00;;;;;;8204240;29;20036;-82
2023/09/09 13:39:00;;;;;;;8.45;5.80;;;41.40;64.80;;;;;;8192532;29;20030;-82
2023/09/09 13:43:00;;;;;;;6.88;5.88;;;41.90;60.80;;;;;;8165276;29;20039;-81
2023/09/09 13:47:01;;;;;;;6.50;5.53;;;42.00;61.50;;;;;;8168618;29;20031;-82
2023/09/09 13:51:01;;;;;;;6.93;6.32;;;40.90;57.20;;;;;;8154574;29;20146;-82
2023/09/09 13:55:03;;;;;;;8.68;6.63;;;40.80;59.50;;;;;;8170061;29;20546;-81
2023/09/09 13:59:03;;;;;;;8.30;6.10;;;39.80;62.50;;;;;;8155494;29;20035;-81
2023/09/09 14:03:04;;;;;;;6.50;5.72;;;39.50;60.90;;;;;;8161516;29;20023;-81
2023/09/09 14:07:04;;;;;;;6.82;6.22;;;38.70;66.10;;;;;;8161512;29;20491;-80
2023/09/09 14:11:05;;;;;;;6.50;5.85;;;38.10;68.10;;;;;;8174676;29;20054;-82
2023/09/09 14:15:06;;;;;;;6.88;6.18;;;37.80;64.40;;;;;;8173098;29;20019;-81
2023/09/09 14:19:06;;;;;;;7.85;6.32;;;38.50;63.80;;;;;;8173754;29;20024;-82
2023/09/09 14:23:07;;;;;;;7.43;6.60;;;38.00;66.00;;;;;;8184164;29;20059;-81
2023/09/09 14:27:07;;;;;;;7.95;5.97;;;37.20;70.30;;;;;;8172074;29;20027;-80
2023/09/09 14:31:09;;;;;;;7.07;6.38;;;37.80;64.10;;;;;;8168751;29;20054;-81
2023/09/09 14:35:09;;;;;;;7.00;6.30;;;39.70;63.70;;;;;;8181561;29;20050;-81
2023/09/09 14:39:10;;;;;;;6.55;5.88;;;40.80;61.70;;;;;;8177042;29;20015;-82
2023/09/09 14:43:10;;;;;;;8.55;5.85;;;40.80;57.90;;;;;;8165008;29;20031;-81
2023/09/09 14:47:11;;;;;;;7.22;5.80;;;41.00;61.30;;;;;;8174424;29;20024;-81
2023/09/09 14:51:11;;;;;;;8.52;6.13;;;40.60;60.70;;;;;;8163789;29;20028;-81
2023/09/09 14:55:12;;;;;;;6.97;6.25;;;40.50;60.50;;;;;;8176524;29;20415;-81
2023/09/09 14:59:12;;;;;;;8.32;6.38;;;39.30;64.00;;;;;;8186602;29;20023;-81
2023/09/09 15:03:13;;;;;;;24.75;7.43;;;37.50;71.00;;;;;;8154787;29;20023;-81
2023/09/09 15:07:14;;;;;;;15.10;6.55;;;35.30;67.80;;;;;;8184346;28;20122;-82
2023/09/09 15:11:14;;;;;;;15.43;7.30;;;33.30;77.80;;;;;;8175700;29;20042;-81
2023/09/09 15:15:15;;;;;;;7.32;6.68;;;31.90;79.60;;;;;;8178090;29;20054;-81
2023/09/09 15:19:16;;;;;;;8.07;6.50;;;30.80;90.60;;;;;;8158212;29;20032;-80
2023/09/09 15:23:17;;;;;;;7.72;6.53;;;30.10;90.00;;;;;;8142827;29;20034;-81
2023/09/09 15:27:17;;;;;;;7.32;6.63;;;29.60;86.80;;;;;;8151757;29;20031;-81
2023/09/09 15:31:18;;;;;;;8.90;7.10;;;29.30;91.80;;;;;;8170378;29;20453;-81
2023/09/09 15:35:18;;;;;;;8.30;6.82;;;29.40;92.30;;;;;;8147439;29;20035;-81
2023/09/09 15:39:19;;;;;;;8.68;7.03;;;29.50;95.60;;;;;;8151127;29;20028;-82
2023/09/09 15:43:20;;;;;;;7.60;6.25;;;30.60;88.10;;;;;;8164682;29;20110;-80
2023/09/09 15:47:21;;;;;;;6.90;6.22;;;32.10;93.00;;;;;;8155070;29;20404;-81
2023/09/09 15:51:21;;;;;;;8.55;6.88;;;32.20;90.90;;;;;;8174549;29;20027;-81
2023/09/09 15:55:22;;;;;;;7.78;6.60;;;31.10;94.80;;;;;;8165727;29;20055;-81
2023/09/09 15:59:23;;;;;;;8.02;6.75;;;30.20;96.40;;;;;;8165200;29;20028;-80
2023/09/09 16:03:23;;;;;;;8.75;6.93;;;29.50;98.20;;;;;;8167642;29;20030;-81
2023/09/09 16:07:36;;;;;;;8.40;6.63;;;28.90;99.90;;;;;;8167918;29;20032;-81
2023/09/09 16:11:36;;;;;;;7.13;6.43;;;28.60;99.90;;;;;;8177252;29;20180;-81
2023/09/09 16:15:37;;;;;;;8.63;7.35;;;28.10;99.90;;;;;;8155939;29;20028;-81
2023/09/09 16:19:38;;;;;;;11.70;7.57;;;27.70;99.90;;;;;;8153036;29;20403;-81
2023/09/09 16:23:38;;;;;;;11.55;7.50;;;27.60;99.90;;;;;;8166519;29;20127;-81
2023/09/09 16:27:40;;;;;;;8.32;7.43;;;27.40;99.90;;;;;;8182763;29;20440;-81
2023/09/09 16:31:41;;;;;;;9.93;8.00;;;27.20;99.90;;;;;;8171515;29;20031;-81
2023/09/09 16:35:42;;;;;;;8.70;7.82;;;27.10;99.90;;;;;;8161740;29;20035;-80
2023/09/09 16:39:43;;;;;;;9.10;7.20;;;27.00;99.90;;;;;;8167261;29;20024;-81
2023/09/09 16:43:44;;;;;;;9.63;7.97;;;26.70;99.90;;;;;;8160758;29;20038;-81
2023/09/09 16:47:44;;;;;;;9.45;7.78;;;26.40;99.90;;;;;;8169390;29;20496;-81
2023/09/09 16:51:45;;;;;;;9.20;7.40;;;25.90;99.90;;;;;;8168903;29;20063;-81
2023/09/09 16:55:45;;;;;;;9.10;8.20;;;25.60;99.90;;;;;;8167606;29;20042;-81
2023/09/09 16:59:46;;;;;;;10.38;7.78;;;25.30;99.90;;;;;;8174754;29;20035;-81
2023/09/09 17:03:46;;;;;;;8.65;7.70;;;25.00;99.90;;;;;;8178653;29;20035;-80
2023/09/09 17:07:48;;;;;;;8.93;8.02;;;24.80;99.90;;;;;;8165643;29;20496;-81
2023/09/09 17:11:48;;;;;;;8.77;7.88;;;24.60;99.90;;;;;;8159510;29;20086;-81
2023/09/09 17:15:49;;;;;;;13.95;8.27;;;24.50;99.90;;;;;;8165392;29;20032;-81
2023/09/09 17:19:49;;;;;;;10.05;8.82;;;24.20;99.90;;;;;;8170280;29;20020;-81
2023/09/09 17:23:50;;;;;;;9.40;8.35;;;24.00;99.90;;;;;;8157262;29;20024;-79
2023/09/09 17:27:51;;;;;;;10.88;9.05;;;23.80;99.90;;;;;;8160436;29;20381;-81
2023/09/09 17:31:51;;;;;;;11.00;9.00;;;23.60;99.90;;;;;;8173394;29;20027;-81
2023/09/09 17:35:52;;;;;;;12.63;9.20;;;23.50;99.90;;;;;;8168536;29;20027;-81
2023/09/09 17:39:52;;;;;;;11.40;9.13;;;23.40;99.90;;;;;;8164997;29;20107;-81
2023/09/09 17:43:53;;;;;;;10.30;9.02;;;23.30;99.90;;;;;;8163568;29;20055;-81
2023/09/09 17:47:53;;;;;;;10.88;9.75;;;23.10;99.90;;;;;;8181586;29;20099;-81
2023/09/09 17:51:54;;;;;;;9.77;8.77;;;22.90;99.90;;;;;;8185846;29;20062;-80
2023/09/09 17:55:55;;;;;;;11.45;9.30;;;22.90;99.90;;;;;;8162525;29;20027;-80
2023/09/09 17:59:56;;;;;;;15.32;9.55;;;22.80;99.90;;;;;;8157627;29;20012;-80
2023/09/09 18:03:56;;;;;;;12.57;9.60;;;22.70;99.90;;;;;;8188130;29;20034;-81
2023/09/09 18:07:57;;;;;;;11.25;9.30;;;22.60;99.90;;;;;;8171514;29;20062;-80
2023/09/09 18:11:57;;;;;;;11.05;9.43;;;22.40;99.90;;;;;;8180482;29;20078;-80
2023/09/09 18:15:58;;;;;;;13.90;9.85;;;22.10;99.90;;;;;;8160596;29;20024;-81
2023/09/09 18:19:59;;;;;;;10.98;9.95;;;21.80;99.90;;;;;;8178943;29;20023;-80
2023/09/09 18:23:59;;;;;;;13.68;10.57;;;21.60;99.90;;;;;;8155604;29;20016;-78
2023/09/09 18:28:00;;;;;;;12.55;11.25;;;21.50;99.90;;;;;;8180774;29;20488;-80
2023/09/09 18:32:00;;;;;;;12.93;11.15;;;21.30;99.90;;;;;;8176460;29;20063;-80
2023/09/09 18:36:01;;;;;;;12.73;11.10;;;21.20;99.90;;;;;;8189037;29;20463;-81
2023/09/09 18:40:04;;;;;;;13.57;11.32;;;21.10;99.90;;;;;;8165066;28;20377;-80
2023/09/09 18:44:04;;;;;;;14.45;11.20;;;21.20;99.90;;;;;;8159415;29;20059;-81
2023/09/09 18:48:05;;;;;;;12.80;11.43;;;21.10;99.90;;;;;;8164543;29;20028;-80
2023/09/09 18:52:06;;;;;;;12.35;11.13;;;21.10;99.90;;;;;;8176657;29;20090;-80
2023/09/09 18:56:06;;;;;;;12.70;11.45;;;21.00;99.90;;;;;;8157540;29;20028;-80
2023/09/09 19:00:07;;;;;;;13.07;11.23;;;21.00;99.90;;;;;;8161412;29;20031;-80
2023/09/09 19:04:08;;;;;;;13.07;11.77;;;20.90;99.90;;;;;;8165898;29;20019;-81
2023/09/09 19:08:08;;;;;;;13.80;11.10;;;20.60;99.90;;;;;;8176988;29;20049;-81
2023/09/09 19:12:09;;;;;;;13.38;11.48;;;20.60;99.90;;;;;;8170786;29;20034;-80
2023/09/09 19:16:10;;;;;;;12.25;11.00;;;20.50;99.90;;;;;;8160381;29;20051;-81
2023/09/09 19:20:11;;;;;;;17.00;11.43;;;20.40;99.90;;;;;;8187708;29;20408;-81
2023/09/09 19:24:12;;;;;;;15.50;12.00;;;20.40;99.90;;;;;;8156421;29;20122;-81
2023/09/09 19:28:12;;;;;;;13.30;11.90;;;20.40;99.90;;;;;;8168930;29;20042;-80
2023/09/09 19:32:13;;;;;;;13.48;11.35;;;20.40;99.90;;;;;;8156054;29;20028;-79
2023/09/09 19:36:13;;;;;;;13.38;12.02;;;20.20;99.90;;;;;;8176089;29;20111;-80
2023/09/09 19:40:14;;;;;;;14.23;11.98;;;19.90;99.90;;;;;;8157465;29;20035;-80
2023/09/09 19:44:14;;;;;;;13.77;12.43;;;19.60;99.90;;;;;;8170982;29;20074;-80
2023/09/09 19:48:15;;;;;;;18.33;13.38;;;19.40;99.90;;;;;;8165014;29;20027;-80
2023/09/09 19:52:16;;;;;;;25.05;20.40;;;19.20;99.90;;;;;;8165813;29;20030;-79
2023/09/09 19:56:17;;;;;;;25.40;18.67;;;19.20;99.90;;;;;;8150576;29;20027;-80
2023/09/09 20:00:17;;;;;;;21.25;16.05;;;19.20;99.90;;;;;;8156930;29;20495;-79
2023/09/09 20:04:18;;;;;;;20.02;15.23;;;19.30;99.90;;;;;;8167519;29;20023;-80
2023/09/09 20:08:21;;;;;;;17.58;15.77;;;19.30;99.90;;;;;;8152327;29;20028;-80
2023/09/09 20:12:22;;;;;;;16.35;14.60;;;19.20;99.90;;;;;;8156964;29;20027;-80
2023/09/09 20:16:22;;;;;;;15.68;14.05;;;19.20;99.90;;;;;;8178411;29;20571;-80
2023/09/09 20:20:23;;;;;;;18.23;16.33;;;19.00;99.90;;;;;;8167600;29;20033;-79
2023/09/09 20:24:23;;;;;;;17.63;14.32;;;18.90;99.90;;;;;;8165970;29;20039;-78
2023/09/09 20:28:25;;;;;;;18.10;15.85;;;18.80;99.90;;;;;;8153332;29;20036;-80
2023/09/09 20:32:26;;;;;;;18.05;15.05;;;18.60;99.90;;;;;;8154513;29;20031;-80